sensor_id;sensor_type;location;lat;lon;timestamp;temperature;humidity
68026;SHT31;54819;48.030;14.710;2023-07-16T00:01:58;23.25;62.38
68026;SHT31;54819;48.030;14.710;2023-07-16T00:04:25;23.17;62.85
68026;SHT31;54819;48.030;14.710;2023-07-16T00:06:52;23.08;63.13
68026;SHT31;54819;48.030;14.710;2023-07-16T00:09:18;22.99;63.30
68026;SHT31;54819;48.030;14.710;2023-07-16T00:11:45;22.94;63.57
68026;SHT31;54819;48.030;14.710;2023-07-16T00:14:12;22.91;63.75
68026;SHT31;54819;48.030;14.710;2023-07-16T00:16:38;22.89;63.83
68026;SHT31;54819;48.030;14.710;2023-07-16T00:19:05;22.87;63.75
68026;SHT31;54819;48.030;14.710;2023-07-16T00:21:32;22.84;63.81
68026;SHT31;54819;48.030;14.710;2023-07-16T00:23:59;22.78;63.89
68026;SHT31;54819;48.030;14.710;2023-07-16T00:26:26;22.72;64.04
68026;SHT31;54819;48.030;14.710;2023-07-16T00:28:52;22.62;64.30
68026;SHT31;54819;48.030;14.710;2023-07-16T00:31:19;22.56;64.71
68026;SHT31;54819;48.030;14.710;2023-07-16T00:33:46;22.48;64.76
68026;SHT31;54819;48.030;14.710;2023-07-16T00:36:12;22.42;64.87
68026;SHT31;54819;48.030;14.710;2023-07-16T00:38:40;22.39;65.00
68026;SHT31;54819;48.030;14.710;2023-07-16T00:41:08;22.33;65.12
68026;SHT31;54819;48.030;14.710;2023-07-16T00:43:35;22.26;65.26
68026;SHT31;54819;48.030;14.710;2023-07-16T00:46:02;22.20;65.54
68026;SHT31;54819;48.030;14.710;2023-07-16T00:48:29;22.14;65.76
68026;SHT31;54819;48.030;14.710;2023-07-16T00:50:55;22.06;66.21
68026;SHT31;54819;48.030;14.710;2023-07-16T00:53:23;21.97;66.52
68026;SHT31;54819;48.030;14.710;2023-07-16T00:55:50;21.90;66.69
68026;SHT31;54819;48.030;14.710;2023-07-16T00:58:18;21.83;67.02
68026;SHT31;54819;48.030;14.710;2023-07-16T01:00:45;21.75;67.19
68026;SHT31;54819;48.030;14.710;2023-07-16T01:03:12;21.70;67.32
68026;SHT31;54819;48.030;14.710;2023-07-16T01:08:12;21.58;67.94
68026;SHT31;54819;48.030;14.710;2023-07-16T01:10:44;21.53;68.01
68026;SHT31;54819;48.030;14.710;2023-07-16T01:13:12;21.47;68.13
68026;SHT31;54819;48.030;14.710;2023-07-16T01:15:40;21.43;68.41
68026;SHT31;54819;48.030;14.710;2023-07-16T01:18:06;21.38;68.66
68026;SHT31;54819;48.030;14.710;2023-07-16T01:20:33;21.35;68.76
68026;SHT31;54819;48.030;14.710;2023-07-16T01:25:49;21.27;69.35
68026;SHT31;54819;48.030;14.710;2023-07-16T01:31:10;21.23;69.48
68026;SHT31;54819;48.030;14.710;2023-07-16T01:33:39;21.22;69.81
68026;SHT31;54819;48.030;14.710;2023-07-16T01:36:11;21.20;69.82
68026;SHT31;54819;48.030;14.710;2023-07-16T01:38:39;21.19;70.12
68026;SHT31;54819;48.030;14.710;2023-07-16T01:41:06;21.19;70.04
68026;SHT31;54819;48.030;14.710;2023-07-16T01:43:32;21.19;69.90
68026;SHT31;54819;48.030;14.710;2023-07-16T01:46:00;21.20;69.84
68026;SHT31;54819;48.030;14.710;2023-07-16T01:50:58;21.19;69.90
68026;SHT31;54819;48.030;14.710;2023-07-16T01:53:25;21.18;69.85
68026;SHT31;54819;48.030;14.710;2023-07-16T01:55:52;21.19;69.92
68026;SHT31;54819;48.030;14.710;2023-07-16T01:58:19;21.17;69.92
68026;SHT31;54819;48.030;14.710;2023-07-16T02:00:49;21.18;69.99
68026;SHT31;54819;48.030;14.710;2023-07-16T02:03:16;21.18;70.02
68026;SHT31;54819;48.030;14.710;2023-07-16T02:05:43;21.16;70.12
68026;SHT31;54819;48.030;14.710;2023-07-16T02:08:10;21.14;70.15
68026;SHT31;54819;48.030;14.710;2023-07-16T02:10:37;21.11;70.31
68026;SHT31;54819;48.030;14.710;2023-07-16T02:13:03;21.06;70.34
68026;SHT31;54819;48.030;14.710;2023-07-16T02:15:30;21.02;70.33
68026;SHT31;54819;48.030;14.710;2023-07-16T02:17:57;20.98;70.27
68026;SHT31;54819;48.030;14.710;2023-07-16T02:20:24;20.94;70.39
68026;SHT31;54819;48.030;14.710;2023-07-16T02:22:51;20.89;70.53
68026;SHT31;54819;48.030;14.710;2023-07-16T02:25:17;20.84;70.78
68026;SHT31;54819;48.030;14.710;2023-07-16T02:27:45;20.78;70.93
68026;SHT31;54819;48.030;14.710;2023-07-16T02:30:13;20.74;71.10
68026;SHT31;54819;48.030;14.710;2023-07-16T02:32:42;20.70;71.13
68026;SHT31;54819;48.030;14.710;2023-07-16T02:35:09;20.67;71.12
68026;SHT31;54819;48.030;14.710;2023-07-16T02:37:36;20.64;71.19
68026;SHT31;54819;48.030;14.710;2023-07-16T02:40:03;20.63;72.07
68026;SHT31;54819;48.030;14.710;2023-07-16T02:42:32;20.58;72.85
68026;SHT31;54819;48.030;14.710;2023-07-16T02:44:59;20.53;72.49
68026;SHT31;54819;48.030;14.710;2023-07-16T02:47:26;20.53;72.63
68026;SHT31;54819;48.030;14.710;2023-07-16T02:49:53;20.53;72.82
68026;SHT31;54819;48.030;14.710;2023-07-16T02:52:19;20.52;72.55
68026;SHT31;54819;48.030;14.710;2023-07-16T02:54:46;20.52;72.70
68026;SHT31;54819;48.030;14.710;2023-07-16T02:57:12;20.52;72.83
68026;SHT31;54819;48.030;14.710;2023-07-16T02:59:39;20.51;72.74
68026;SHT31;54819;48.030;14.710;2023-07-16T03:02:06;20.49;72.72
68026;SHT31;54819;48.030;14.710;2023-07-16T03:04:32;20.48;72.81
68026;SHT31;54819;48.030;14.710;2023-07-16T03:06:59;20.48;72.83
68026;SHT31;54819;48.030;14.710;2023-07-16T03:09:26;20.47;72.62
68026;SHT31;54819;48.030;14.710;2023-07-16T03:11:52;20.48;72.55
68026;SHT31;54819;48.030;14.710;2023-07-16T03:14:19;20.55;72.35
68026;SHT31;54819;48.030;14.710;2023-07-16T03:16:46;20.74;71.67
68026;SHT31;54819;48.030;14.710;2023-07-16T03:19:13;21.03;70.95
68026;SHT31;54819;48.030;14.710;2023-07-16T03:21:39;21.32;70.28
68026;SHT31;54819;48.030;14.710;2023-07-16T03:24:06;21.58;69.59
68026;SHT31;54819;48.030;14.710;2023-07-16T03:26:34;21.91;68.84
68026;SHT31;54819;48.030;14.710;2023-07-16T03:29:01;22.14;68.36
68026;SHT31;54819;48.030;14.710;2023-07-16T03:31:28;22.32;67.99
68026;SHT31;54819;48.030;14.710;2023-07-16T03:33:56;22.50;67.46
68026;SHT31;54819;48.030;14.710;2023-07-16T03:36:24;22.68;66.99
68026;SHT31;54819;48.030;14.710;2023-07-16T03:38:50;22.82;66.56
68026;SHT31;54819;48.030;14.710;2023-07-16T03:41:17;22.95;66.32
68026;SHT31;54819;48.030;14.710;2023-07-16T03:43:44;23.05;66.06
68026;SHT31;54819;48.030;14.710;2023-07-16T03:46:16;23.15;65.80
68026;SHT31;54819;48.030;14.710;2023-07-16T03:48:44;23.23;65.62
68026;SHT31;54819;48.030;14.710;2023-07-16T03:51:11;23.29;65.43
68026;SHT31;54819;48.030;14.710;2023-07-16T03:53:38;23.36;65.16
68026;SHT31;54819;48.030;14.710;2023-07-16T03:56:05;23.41;65.13
68026;SHT31;54819;48.030;14.710;2023-07-16T03:58:31;23.47;65.00
68026;SHT31;54819;48.030;14.710;2023-07-16T04:00:59;23.52;64.87
68026;SHT31;54819;48.030;14.710;2023-07-16T04:03:26;23.60;64.58
68026;SHT31;54819;48.030;14.710;2023-07-16T04:06:00;23.69;64.45
68026;SHT31;54819;48.030;14.710;2023-07-16T04:08:30;23.78;64.25
68026;SHT31;54819;48.030;14.710;2023-07-16T04:10:57;23.86;64.00
68026;SHT31;54819;48.030;14.710;2023-07-16T04:13:24;23.93;63.82
68026;SHT31;54819;48.030;14.710;2023-07-16T04:15:51;24.01;63.56
68026;SHT31;54819;48.030;14.710;2023-07-16T04:18:20;24.07;63.52
68026;SHT31;54819;48.030;14.710;2023-07-16T04:20:48;24.13;63.37
68026;SHT31;54819;48.030;14.710;2023-07-16T04:23:14;24.15;63.24
68026;SHT31;54819;48.030;14.710;2023-07-16T04:25:41;24.17;63.28
68026;SHT31;54819;48.030;14.710;2023-07-16T04:28:09;24.17;63.18
68026;SHT31;54819;48.030;14.710;2023-07-16T04:30:38;24.20;63.07
68026;SHT31;54819;48.030;14.710;2023-07-16T04:33:05;24.24;62.87
68026;SHT31;54819;48.030;14.710;2023-07-16T04:35:32;24.30;62.90
68026;SHT31;54819;48.030;14.710;2023-07-16T04:38:00;24.36;62.85
68026;SHT31;54819;48.030;14.710;2023-07-16T04:40:28;24.42;62.85
68026;SHT31;54819;48.030;14.710;2023-07-16T04:42:55;24.50;62.68
68026;SHT31;54819;48.030;14.710;2023-07-16T04:45:22;24.57;62.39
68026;SHT31;54819;48.030;14.710;2023-07-16T04:47:49;24.65;62.13
68026;SHT31;54819;48.030;14.710;2023-07-16T04:50:16;24.67;62.09
68026;SHT31;54819;48.030;14.710;2023-07-16T04:52:43;24.67;61.70
68026;SHT31;54819;48.030;14.710;2023-07-16T04:55:09;24.68;61.83
68026;SHT31;54819;48.030;14.710;2023-07-16T04:57:37;24.68;61.98
68026;SHT31;54819;48.030;14.710;2023-07-16T05:00:04;24.63;61.83
68026;SHT31;54819;48.030;14.710;2023-07-16T05:02:32;24.58;61.84
68026;SHT31;54819;48.030;14.710;2023-07-16T05:04:59;24.57;61.93
68026;SHT31;54819;48.030;14.710;2023-07-16T05:07:26;24.57;62.17
68026;SHT31;54819;48.030;14.710;2023-07-16T05:09:52;24.60;62.21
68026;SHT31;54819;48.030;14.710;2023-07-16T05:12:19;24.59;62.20
68026;SHT31;54819;48.030;14.710;2023-07-16T05:14:46;24.58;62.10
68026;SHT31;54819;48.030;14.710;2023-07-16T05:17:14;24.53;62.11
68026;SHT31;54819;48.030;14.710;2023-07-16T05:19:41;24.50;62.14
68026;SHT31;54819;48.030;14.710;2023-07-16T05:22:08;24.48;62.09
68026;SHT31;54819;48.030;14.710;2023-07-16T05:24:35;24.48;62.21
68026;SHT31;54819;48.030;14.710;2023-07-16T05:27:02;24.48;62.13
68026;SHT31;54819;48.030;14.710;2023-07-16T05:29:30;24.50;62.20
68026;SHT31;54819;48.030;14.710;2023-07-16T05:31:56;24.52;62.13
68026;SHT31;54819;48.030;14.710;2023-07-16T05:34:23;24.54;62.16
68026;SHT31;54819;48.030;14.710;2023-07-16T05:36:52;24.55;62.08
68026;SHT31;54819;48.030;14.710;2023-07-16T05:39:20;24.54;62.02
68026;SHT31;54819;48.030;14.710;2023-07-16T05:41:47;24.55;62.16
68026;SHT31;54819;48.030;14.710;2023-07-16T05:44:13;24.53;62.27
68026;SHT31;54819;48.030;14.710;2023-07-16T05:46:40;24.54;62.47
68026;SHT31;54819;48.030;14.710;2023-07-16T05:49:07;24.53;62.62
68026;SHT31;54819;48.030;14.710;2023-07-16T05:51:34;24.52;62.63
68026;SHT31;54819;48.030;14.710;2023-07-16T05:54:01;24.52;62.78
68026;SHT31;54819;48.030;14.710;2023-07-16T05:56:28;24.54;62.93
68026;SHT31;54819;48.030;14.710;2023-07-16T05:58:55;24.58;62.89
68026;SHT31;54819;48.030;14.710;2023-07-16T06:01:22;24.61;62.81
68026;SHT31;54819;48.030;14.710;2023-07-16T06:03:49;24.66;62.83
68026;SHT31;54819;48.030;14.710;2023-07-16T06:06:16;24.69;62.87
68026;SHT31;54819;48.030;14.710;2023-07-16T06:08:43;24.71;62.77
68026;SHT31;54819;48.030;14.710;2023-07-16T06:11:10;24.74;62.54
68026;SHT31;54819;48.030;14.710;2023-07-16T06:13:36;24.77;62.57
68026;SHT31;54819;48.030;14.710;2023-07-16T06:16:03;24.83;62.48
68026;SHT31;54819;48.030;14.710;2023-07-16T06:18:30;24.88;62.24
68026;SHT31;54819;48.030;14.710;2023-07-16T06:20:57;24.95;62.29
68026;SHT31;54819;48.030;14.710;2023-07-16T06:23:24;25.02;62.20
68026;SHT31;54819;48.030;14.710;2023-07-16T06:25:54;25.10;62.01
68026;SHT31;54819;48.030;14.710;2023-07-16T06:28:22;25.20;61.86
68026;SHT31;54819;48.030;14.710;2023-07-16T06:30:49;25.32;61.78
68026;SHT31;54819;48.030;14.710;2023-07-16T06:33:18;25.43;61.45
68026;SHT31;54819;48.030;14.710;2023-07-16T06:35:46;25.51;61.24
68026;SHT31;54819;48.030;14.710;2023-07-16T06:38:16;25.55;60.82
68026;SHT31;54819;48.030;14.710;2023-07-16T06:40:47;25.53;60.59
68026;SHT31;54819;48.030;14.710;2023-07-16T06:43:15;25.57;60.66
68026;SHT31;54819;48.030;14.710;2023-07-16T06:45:42;25.63;60.84
68026;SHT31;54819;48.030;14.710;2023-07-16T06:48:10;25.69;61.01
68026;SHT31;54819;48.030;14.710;2023-07-16T06:50:36;25.74;60.91
68026;SHT31;54819;48.030;14.710;2023-07-16T06:53:03;25.72;60.62
68026;SHT31;54819;48.030;14.710;2023-07-16T06:55:30;25.70;60.61
68026;SHT31;54819;48.030;14.710;2023-07-16T06:57:56;25.70;60.59
68026;SHT31;54819;48.030;14.710;2023-07-16T07:00:23;25.70;60.44
68026;SHT31;54819;48.030;14.710;2023-07-16T07:02:50;25.66;60.13
68026;SHT31;54819;48.030;14.710;2023-07-16T07:05:16;25.65;60.33
68026;SHT31;54819;48.030;14.710;2023-07-16T07:07:43;25.66;60.48
68026;SHT31;54819;48.030;14.710;2023-07-16T07:10:12;25.72;60.44
68026;SHT31;54819;48.030;14.710;2023-07-16T07:12:39;25.80;60.40
68026;SHT31;54819;48.030;14.710;2023-07-16T07:15:09;25.87;60.36
68026;SHT31;54819;48.030;14.710;2023-07-16T07:17:37;25.98;60.31
68026;SHT31;54819;48.030;14.710;2023-07-16T07:20:04;26.07;60.13
68026;SHT31;54819;48.030;14.710;2023-07-16T07:22:31;26.11;59.40
68026;SHT31;54819;48.030;14.710;2023-07-16T07:24:58;26.18;59.54
68026;SHT31;54819;48.030;14.710;2023-07-16T07:27:25;26.27;59.43
68026;SHT31;54819;48.030;14.710;2023-07-16T07:29:51;26.33;59.29
68026;SHT31;54819;48.030;14.710;2023-07-16T07:32:19;26.42;59.19
68026;SHT31;54819;48.030;14.710;2023-07-16T07:34:47;26.50;58.80
68026;SHT31;54819;48.030;14.710;2023-07-16T07:37:14;26.51;58.65
68026;SHT31;54819;48.030;14.710;2023-07-16T07:39:41;26.59;58.97
68026;SHT31;54819;48.030;14.710;2023-07-16T07:42:08;26.67;58.97
68026;SHT31;54819;48.030;14.710;2023-07-16T07:44:36;26.75;58.79
68026;SHT31;54819;48.030;14.710;2023-07-16T07:47:04;26.78;58.33
68026;SHT31;54819;48.030;14.710;2023-07-16T07:49:31;26.78;58.22
68026;SHT31;54819;48.030;14.710;2023-07-16T07:51:58;26.78;58.17
68026;SHT31;54819;48.030;14.710;2023-07-16T07:54:25;26.77;58.32
68026;SHT31;54819;48.030;14.710;2023-07-16T07:56:52;26.68;58.03
68026;SHT31;54819;48.030;14.710;2023-07-16T07:59:18;26.70;58.45
68026;SHT31;54819;48.030;14.710;2023-07-16T08:01:45;26.81;58.85
68026;SHT31;54819;48.030;14.710;2023-07-16T08:04:12;26.90;58.26
68026;SHT31;54819;48.030;14.710;2023-07-16T08:06:39;26.94;57.87
68026;SHT31;54819;48.030;14.710;2023-07-16T08:09:05;27.03;57.94
68026;SHT31;54819;48.030;14.710;2023-07-16T08:11:32;27.15;57.88
68026;SHT31;54819;48.030;14.710;2023-07-16T08:13:59;27.29;57.79
68026;SHT31;54819;48.030;14.710;2023-07-16T08:16:25;27.37;57.58
68026;SHT31;54819;48.030;14.710;2023-07-16T08:18:52;27.41;57.39
68026;SHT31;54819;48.030;14.710;2023-07-16T08:21:19;27.51;57.24
68026;SHT31;54819;48.030;14.710;2023-07-16T08:23:48;27.66;57.07
68026;SHT31;54819;48.030;14.710;2023-07-16T08:26:16;27.85;57.08
68026;SHT31;54819;48.030;14.710;2023-07-16T08:28:43;28.12;57.28
68026;SHT31;54819;48.030;14.710;2023-07-16T08:31:11;28.36;56.39
68026;SHT31;54819;48.030;14.710;2023-07-16T08:33:39;28.43;55.45
68026;SHT31;54819;48.030;14.710;2023-07-16T08:36:06;28.37;54.85
68026;SHT31;54819;48.030;14.710;2023-07-16T08:38:33;28.30;55.11
68026;SHT31;54819;48.030;14.710;2023-07-16T08:41:00;28.29;55.63
68026;SHT31;54819;48.030;14.710;2023-07-16T08:43:28;28.22;54.91
68026;SHT31;54819;48.030;14.710;2023-07-16T08:45:56;28.28;55.61
68026;SHT31;54819;48.030;14.710;2023-07-16T08:48:23;28.43;55.23
68026;SHT31;54819;48.030;14.710;2023-07-16T08:50:49;28.45;54.88
68026;SHT31;54819;48.030;14.710;2023-07-16T08:53:16;28.39;55.23
68026;SHT31;54819;48.030;14.710;2023-07-16T08:55:46;28.30;54.99
68026;SHT31;54819;48.030;14.710;2023-07-16T08:58:17;28.19;55.04
68026;SHT31;54819;48.030;14.710;2023-07-16T09:00:45;28.11;55.42
68026;SHT31;54819;48.030;14.710;2023-07-16T09:03:12;28.08;55.92
68026;SHT31;54819;48.030;14.710;2023-07-16T09:05:40;28.08;55.73
68026;SHT31;54819;48.030;14.710;2023-07-16T09:08:07;28.09;55.86
68026;SHT31;54819;48.030;14.710;2023-07-16T09:10:34;28.08;55.32
68026;SHT31;54819;48.030;14.710;2023-07-16T09:13:01;28.00;55.28
68026;SHT31;54819;48.030;14.710;2023-07-16T09:15:28;27.97;55.11
68026;SHT31;54819;48.030;14.710;2023-07-16T09:17:56;27.83;55.23
68026;SHT31;54819;48.030;14.710;2023-07-16T09:20:23;27.77;55.57
68026;SHT31;54819;48.030;14.710;2023-07-16T09:22:53;27.80;56.15
68026;SHT31;54819;48.030;14.710;2023-07-16T09:25:28;27.78;55.92
68026;SHT31;54819;48.030;14.710;2023-07-16T09:27:58;27.80;56.32
68026;SHT31;54819;48.030;14.710;2023-07-16T09:30:31;27.84;56.07
68026;SHT31;54819;48.030;14.710;2023-07-16T09:33:13;27.83;55.75
68026;SHT31;54819;48.030;14.710;2023-07-16T09:35:41;27.80;55.69
68026;SHT31;54819;48.030;14.710;2023-07-16T09:38:08;27.82;55.50
68026;SHT31;54819;48.030;14.710;2023-07-16T09:40:36;27.82;55.07
68026;SHT31;54819;48.030;14.710;2023-07-16T09:43:04;27.83;55.48
68026;SHT31;54819;48.030;14.710;2023-07-16T09:45:32;27.93;55.81
68026;SHT31;54819;48.030;14.710;2023-07-16T09:47:59;28.02;55.83
68026;SHT31;54819;48.030;14.710;2023-07-16T09:50:29;28.10;55.43
68026;SHT31;54819;48.030;14.710;2023-07-16T09:52:58;28.14;54.69
68026;SHT31;54819;48.030;14.710;2023-07-16T09:55:25;28.09;54.51
68026;SHT31;54819;48.030;14.710;2023-07-16T09:57:53;28.03;54.69
68026;SHT31;54819;48.030;14.710;2023-07-16T10:00:22;27.99;54.66
68026;SHT31;54819;48.030;14.710;2023-07-16T10:02:50;28.01;54.97
68026;SHT31;54819;48.030;14.710;2023-07-16T10:05:24;28.10;55.65
68026;SHT31;54819;48.030;14.710;2023-07-16T10:10:20;28.17;54.72
68026;SHT31;54819;48.030;14.710;2023-07-16T10:12:58;28.15;54.68
68026;SHT31;54819;48.030;14.710;2023-07-16T10:15:28;28.17;54.75
68026;SHT31;54819;48.030;14.710;2023-07-16T10:17:56;28.21;54.89
68026;SHT31;54819;48.030;14.710;2023-07-16T10:22:57;28.45;55.60
68026;SHT31;54819;48.030;14.710;2023-07-16T10:25:25;28.59;54.96
68026;SHT31;54819;48.030;14.710;2023-07-16T10:27:53;28.63;54.05
68026;SHT31;54819;48.030;14.710;2023-07-16T10:30:21;28.68;54.30
68026;SHT31;54819;48.030;14.710;2023-07-16T10:32:50;28.73;53.62
68026;SHT31;54819;48.030;14.710;2023-07-16T10:35:19;28.71;53.68
68026;SHT31;54819;48.030;14.710;2023-07-16T10:37:46;28.68;53.74
68026;SHT31;54819;48.030;14.710;2023-07-16T10:40:13;28.75;54.48
68026;SHT31;54819;48.030;14.710;2023-07-16T10:42:41;28.84;54.37
68026;SHT31;54819;48.030;14.710;2023-07-16T10:45:13;28.88;54.19
68026;SHT31;54819;48.030;14.710;2023-07-16T10:47:50;28.91;53.89
68026;SHT31;54819;48.030;14.710;2023-07-16T10:50:20;28.95;53.78
68026;SHT31;54819;48.030;14.710;2023-07-16T10:52:50;28.97;53.66
68026;SHT31;54819;48.030;14.710;2023-07-16T10:55:21;29.01;53.30
68026;SHT31;54819;48.030;14.710;2023-07-16T10:57:48;29.06;53.14
68026;SHT31;54819;48.030;14.710;2023-07-16T11:00:17;29.10;53.22
68026;SHT31;54819;48.030;14.710;2023-07-16T11:02:44;29.16;53.29
68026;SHT31;54819;48.030;14.710;2023-07-16T11:05:11;29.22;53.15
68026;SHT31;54819;48.030;14.710;2023-07-16T11:07:42;29.29;53.02
68026;SHT31;54819;48.030;14.710;2023-07-16T11:10:17;29.33;52.48
68026;SHT31;54819;48.030;14.710;2023-07-16T11:12:44;29.17;52.54
68026;SHT31;54819;48.030;14.710;2023-07-16T11:15:16;28.98;52.41
68026;SHT31;54819;48.030;14.710;2023-07-16T11:17:43;29.01;52.92
68026;SHT31;54819;48.030;14.710;2023-07-16T11:20:16;29.08;52.75
68026;SHT31;54819;48.030;14.710;2023-07-16T11:22:46;29.15;52.67
68026;SHT31;54819;48.030;14.710;2023-07-16T11:25:13;29.09;52.36
68026;SHT31;54819;48.030;14.710;2023-07-16T11:27:40;29.15;52.48
68026;SHT31;54819;48.030;14.710;2023-07-16T11:30:08;29.23;51.98
68026;SHT31;54819;48.030;14.710;2023-07-16T11:32:36;29.26;51.90
68026;SHT31;54819;48.030;14.710;2023-07-16T11:35:05;29.35;51.71
68026;SHT31;54819;48.030;14.710;2023-07-16T11:37:34;29.40;51.49
68026;SHT31;54819;48.030;14.710;2023-07-16T11:40:07;29.49;51.46
68026;SHT31;54819;48.030;14.710;2023-07-16T11:42:36;29.56;51.09
68026;SHT31;54819;48.030;14.710;2023-07-16T11:45:05;29.63;51.16
68026;SHT31;54819;48.030;14.710;2023-07-16T11:47:41;29.73;50.61
68026;SHT31;54819;48.030;14.710;2023-07-16T11:50:10;29.79;50.43
68026;SHT31;54819;48.030;14.710;2023-07-16T11:52:37;29.77;49.24
68026;SHT31;54819;48.030;14.710;2023-07-16T11:55:05;29.78;50.06
68026;SHT31;54819;48.030;14.710;2023-07-16T11:57:32;29.85;49.97
68026;SHT31;54819;48.030;14.710;2023-07-16T12:00:00;29.91;49.94
68026;SHT31;54819;48.030;14.710;2023-07-16T12:02:30;29.98;49.69
68026;SHT31;54819;48.030;14.710;2023-07-16T12:04:57;30.05;49.31
68026;SHT31;54819;48.030;14.710;2023-07-16T12:07:33;30.09;49.71
68026;SHT31;54819;48.030;14.710;2023-07-16T12:10:04;30.16;49.31
68026;SHT31;54819;48.030;14.710;2023-07-16T12:12:33;30.25;49.61
68026;SHT31;54819;48.030;14.710;2023-07-16T12:15:05;30.33;49.33
68026;SHT31;54819;48.030;14.710;2023-07-16T12:17:33;30.38;48.72
68026;SHT31;54819;48.030;14.710;2023-07-16T12:20:01;30.42;48.91
68026;SHT31;54819;48.030;14.710;2023-07-16T12:22:30;30.48;48.48
68026;SHT31;54819;48.030;14.710;2023-07-16T12:24:58;30.52;47.80
68026;SHT31;54819;48.030;14.710;2023-07-16T12:27:24;30.56;48.22
68026;SHT31;54819;48.030;14.710;2023-07-16T12:29:51;30.60;47.80
68026;SHT31;54819;48.030;14.710;2023-07-16T12:32:18;30.61;46.85
68026;SHT31;54819;48.030;14.710;2023-07-16T12:34:47;30.62;46.89
68026;SHT31;54819;48.030;14.710;2023-07-16T12:37:13;30.56;45.95
68026;SHT31;54819;48.030;14.710;2023-07-16T12:39:40;30.55;46.34
68026;SHT31;54819;48.030;14.710;2023-07-16T12:42:07;30.58;46.53
68026;SHT31;54819;48.030;14.710;2023-07-16T12:44:33;30.62;46.42
68026;SHT31;54819;48.030;14.710;2023-07-16T12:47:00;30.60;46.79
68026;SHT31;54819;48.030;14.710;2023-07-16T12:49:26;30.59;46.06
68026;SHT31;54819;48.030;14.710;2023-07-16T12:51:53;30.62;46.58
68026;SHT31;54819;48.030;14.710;2023-07-16T12:54:20;30.66;46.08
68026;SHT31;54819;48.030;14.710;2023-07-16T12:56:46;30.69;45.61
68026;SHT31;54819;48.030;14.710;2023-07-16T12:59:13;30.65;45.22
68026;SHT31;54819;48.030;14.710;2023-07-16T13:01:40;30.59;44.66
68026;SHT31;54819;48.030;14.710;2023-07-16T13:04:07;30.57;45.39
68026;SHT31;54819;48.030;14.710;2023-07-16T13:06:34;30.59;45.69
68026;SHT31;54819;48.030;14.710;2023-07-16T13:09:00;30.58;45.48
68026;SHT31;54819;48.030;14.710;2023-07-16T13:11:27;30.49;45.23
68026;SHT31;54819;48.030;14.710;2023-07-16T13:13:54;30.52;45.36
68026;SHT31;54819;48.030;14.710;2023-07-16T13:16:20;30.58;43.87
68026;SHT31;54819;48.030;14.710;2023-07-16T13:18:47;30.64;43.77
68026;SHT31;54819;48.030;14.710;2023-07-16T13:21:14;30.72;43.80
68026;SHT31;54819;48.030;14.710;2023-07-16T13:23:40;30.80;43.73
68026;SHT31;54819;48.030;14.710;2023-07-16T13:26:07;30.87;44.24
68026;SHT31;54819;48.030;14.710;2023-07-16T13:28:34;30.93;44.65
68026;SHT31;54819;48.030;14.710;2023-07-16T13:31:01;30.89;44.54
68026;SHT31;54819;48.030;14.710;2023-07-16T13:33:27;30.94;44.60
68026;SHT31;54819;48.030;14.710;2023-07-16T13:35:54;31.02;44.57
68026;SHT31;54819;48.030;14.710;2023-07-16T13:38:21;31.00;43.06
68026;SHT31;54819;48.030;14.710;2023-07-16T13:40:47;30.99;44.13
68026;SHT31;54819;48.030;14.710;2023-07-16T13:43:14;31.10;44.60
68026;SHT31;54819;48.030;14.710;2023-07-16T13:45:41;31.20;44.17
68026;SHT31;54819;48.030;14.710;2023-07-16T13:48:07;31.20;44.10
68026;SHT31;54819;48.030;14.710;2023-07-16T13:50:34;31.19;43.80
68026;SHT31;54819;48.030;14.710;2023-07-16T13:53:01;31.13;43.48
68026;SHT31;54819;48.030;14.710;2023-07-16T13:55:28;31.06;43.21
68026;SHT31;54819;48.030;14.710;2023-07-16T13:57:55;31.11;43.34
68026;SHT31;54819;48.030;14.710;2023-07-16T14:00:22;31.17;43.64
68026;SHT31;54819;48.030;14.710;2023-07-16T14:02:49;31.21;43.63
68026;SHT31;54819;48.030;14.710;2023-07-16T14:05:18;31.27;43.65
68026;SHT31;54819;48.030;14.710;2023-07-16T14:07:45;31.30;43.39
68026;SHT31;54819;48.030;14.710;2023-07-16T14:10:13;31.36;43.89
68026;SHT31;54819;48.030;14.710;2023-07-16T14:12:39;31.40;44.21
68026;SHT31;54819;48.030;14.710;2023-07-16T14:15:06;31.37;44.10
68026;SHT31;54819;48.030;14.710;2023-07-16T14:17:34;31.38;43.87
68026;SHT31;54819;48.030;14.710;2023-07-16T14:20:00;31.39;44.13
68026;SHT31;54819;48.030;14.710;2023-07-16T14:22:27;31.39;43.72
68026;SHT31;54819;48.030;14.710;2023-07-16T14:24:54;31.39;43.99
68026;SHT31;54819;48.030;14.710;2023-07-16T14:27:21;31.49;44.64
68026;SHT31;54819;48.030;14.710;2023-07-16T14:29:49;31.58;43.97
68026;SHT31;54819;48.030;14.710;2023-07-16T14:32:30;31.57;43.36
68026;SHT31;54819;48.030;14.710;2023-07-16T14:34:58;31.61;43.39
68026;SHT31;54819;48.030;14.710;2023-07-16T14:37:26;31.64;43.34
68026;SHT31;54819;48.030;14.710;2023-07-16T14:39:53;31.64;41.85
68026;SHT31;54819;48.030;14.710;2023-07-16T14:42:20;31.61;41.17
68026;SHT31;54819;48.030;14.710;2023-07-16T14:44:47;31.62;40.98
68026;SHT31;54819;48.030;14.710;2023-07-16T14:47:13;31.57;41.17
68026;SHT31;54819;48.030;14.710;2023-07-16T14:49:40;31.59;41.72
68026;SHT31;54819;48.030;14.710;2023-07-16T14:52:07;31.63;41.99
68026;SHT31;54819;48.030;14.710;2023-07-16T14:54:33;31.65;41.91
68026;SHT31;54819;48.030;14.710;2023-07-16T14:57:02;31.67;42.04
68026;SHT31;54819;48.030;14.710;2023-07-16T14:59:29;31.69;41.77
68026;SHT31;54819;48.030;14.710;2023-07-16T15:01:56;31.69;42.06
68026;SHT31;54819;48.030;14.710;2023-07-16T15:04:23;31.65;42.07
68026;SHT31;54819;48.030;14.710;2023-07-16T15:06:49;31.69;42.48
68026;SHT31;54819;48.030;14.710;2023-07-16T15:09:17;31.70;42.45
68026;SHT31;54819;48.030;14.710;2023-07-16T15:11:44;31.73;42.54
68026;SHT31;54819;48.030;14.710;2023-07-16T15:14:10;31.76;42.49
68026;SHT31;54819;48.030;14.710;2023-07-16T15:16:38;31.78;42.67
68026;SHT31;54819;48.030;14.710;2023-07-16T15:19:06;31.78;42.57
68026;SHT31;54819;48.030;14.710;2023-07-16T15:21:35;31.71;42.37
68026;SHT31;54819;48.030;14.710;2023-07-16T15:24:05;31.69;42.66
68026;SHT31;54819;48.030;14.710;2023-07-16T15:26:32;31.70;42.93
68026;SHT31;54819;48.030;14.710;2023-07-16T15:28:59;31.70;42.81
68026;SHT31;54819;48.030;14.710;2023-07-16T15:31:26;31.69;42.98
68026;SHT31;54819;48.030;14.710;2023-07-16T15:33:56;31.67;42.82